Phyllis Lauder — WDC6302 — position and weather

sailwx.info

Track history (hours):
 
Tides and Currents Weather Stations Pressure Air Temp Water Temp Dewpoint Dewpoint Depression Visibility Wind Speed Wind Dir Waves Ship Positions

Phyllis Lauder

Owner: Excell Marine Corporation, Cincinnati, OH. More information available from US FCC via Universal Licensing System and Coast Guard Vessel Documentation Center.

Last reported at 2014-Oct-12 01:33 UTC. Time now 2014-Oct-30 18:13 UTC.
Position N 30°07' W 090°55'.
Warning: this ship's position is 18 days out of date.

Length 46 m; draft 3 m.

Type: Towing. MMSI: 367054240.

Date/timePositionNaut miles runAvg speedWind from/ knotsBaromVisibWave heightAir tempDewpointWater temp
2014-Oct-12 01:33N 30°07' W 090°55'10 0.5
2014-Oct-11 07:32N 29°60' W 090°48'0 0.0
2014-Oct-11 06:31N 29°60' W 090°48'2 2.0
2014-Oct-11 05:33N 30°01' W 090°46'5 4.6
2014-Oct-11 04:33N 30°02' W 090°41'1 1.5
2014-Oct-11 03:33N 30°03' W 090°39'0 0.1
2014-Oct-11 02:33N 30°03' W 090°39'0 0.0
2014-Oct-11 01:29N 30°03' W 090°39'0 0.0
2014-Oct-11 00:33N 30°03' W 090°39'0 0.0
2014-Oct-10 23:33N 30°03' W 090°39'1 0.8
2014-Oct-10 22:33N 30°03' W 090°38'4 1.9
2014-Oct-10 20:33N 30°03' W 090°34'10 0.5
2014-Oct-09 22:33N 29°58' W 090°24'5 0.5
2014-Oct-09 12:33N 30°02' W 090°28'0 0.0
2014-Oct-09 11:33N 30°02' W 090°28'0 0.0
2014-Oct-09 10:33N 30°02' W 090°28'0 0.0
2014-Oct-09 09:33N 30°02' W 090°28'0 0.0
2014-Oct-09 08:33N 30°02' W 090°28'0 0.0
2014-Oct-09 07:33N 30°02' W 090°28'0 0.0
2014-Oct-09 06:33N 30°02' W 090°28'0 0.0
2014-Oct-09 05:33N 30°02' W 090°28'0 0.0
2014-Oct-09 04:33N 30°02' W 090°28'0 0.0
2014-Oct-09 03:33N 30°02' W 090°28'0 0.0
2014-Oct-09 02:33N 30°02' W 090°28'0 0.0
2014-Oct-09 01:33N 30°02' W 090°28'0 0.0
2014-Oct-09 00:33N 30°02' W 090°28'0 0.0
2014-Oct-08 23:33N 30°02' W 090°28'1 1.4
2014-Oct-08 22:33N 30°03' W 090°29'4 4.5
2014-Oct-08 21:33N 30°03' W 090°34'0 0.0
2014-Oct-08 20:33N 30°03' W 090°34'0 0.0
2014-Oct-08 19:33N 30°03' W 090°34'0 0.0
2014-Oct-08 18:33N 30°03' W 090°34'0 0.0
2014-Oct-08 17:33N 30°03' W 090°34'0 0.0
2014-Oct-08 16:33N 30°03' W 090°34'5 1.0
2014-Oct-08 11:33N 30°03' W 090°40'0 0.0
2014-Oct-08 10:33N 30°03' W 090°40'0 0.0
2014-Oct-08 09:33N 30°03' W 090°40'0 0.0
2014-Oct-08 08:33N 30°03' W 090°40'0 0.0
2014-Oct-08 07:33N 30°03' W 090°40'0 0.0
2014-Oct-08 06:33N 30°03' W 090°40'0 0.0
2014-Oct-08 05:33N 30°03' W 090°40'0 0.0
2014-Oct-08 04:33N 30°03' W 090°40'0 0.1
2014-Oct-08 03:33N 30°03' W 090°40'6 5.9
2014-Oct-08 02:33N 30°01' W 090°47'  
Track history (hours):
 
Tides and Currents Weather Stations Pressure Air Temp Water Temp Dewpoint Dewpoint Depression Visibility Wind Speed Wind Dir Waves Ship Positions

Phyllis Lauder

Owner: Excell Marine Corporation, Cincinnati, OH. More information available from US FCC via Universal Licensing System and Coast Guard Vessel Documentation Center.

Last reported at 2014-Oct-12 01:33 UTC. Time now 2014-Oct-30 18:13 UTC.
Position N 30°07' W 090°55'.
Warning: this ship's position is 18 days out of date.

Length 46 m; draft 3 m.

Type: Towing. MMSI: 367054240.

Date/timePositionNaut miles runAvg speedWind from/ knotsBaromVisibWave heightAir tempDewpointWater temp
2014-Oct-12 01:33N 30°07' W 090°55'10 0.5
2014-Oct-11 07:32N 29°60' W 090°48'0 0.0
2014-Oct-11 06:31N 29°60' W 090°48'2 2.0
2014-Oct-11 05:33N 30°01' W 090°46'5 4.6
2014-Oct-11 04:33N 30°02' W 090°41'1 1.5
2014-Oct-11 03:33N 30°03' W 090°39'0 0.1
2014-Oct-11 02:33N 30°03' W 090°39'0 0.0
2014-Oct-11 01:29N 30°03' W 090°39'0 0.0
2014-Oct-11 00:33N 30°03' W 090°39'0 0.0
2014-Oct-10 23:33N 30°03' W 090°39'1 0.8
2014-Oct-10 22:33N 30°03' W 090°38'4 1.9
2014-Oct-10 20:33N 30°03' W 090°34'10 0.5
2014-Oct-09 22:33N 29°58' W 090°24'5 0.5
2014-Oct-09 12:33N 30°02' W 090°28'0 0.0
2014-Oct-09 11:33N 30°02' W 090°28'0 0.0
2014-Oct-09 10:33N 30°02' W 090°28'0 0.0
2014-Oct-09 09:33N 30°02' W 090°28'0 0.0
2014-Oct-09 08:33N 30°02' W 090°28'0 0.0
2014-Oct-09 07:33N 30°02' W 090°28'0 0.0
2014-Oct-09 06:33N 30°02' W 090°28'0 0.0
2014-Oct-09 05:33N 30°02' W 090°28'0 0.0
2014-Oct-09 04:33N 30°02' W 090°28'0 0.0
2014-Oct-09 03:33N 30°02' W 090°28'0 0.0
2014-Oct-09 02:33N 30°02' W 090°28'0 0.0
2014-Oct-09 01:33N 30°02' W 090°28'0 0.0
2014-Oct-09 00:33N 30°02' W 090°28'0 0.0
2014-Oct-08 23:33N 30°02' W 090°28'1 1.4
2014-Oct-08 22:33N 30°03' W 090°29'4 4.5
2014-Oct-08 21:33N 30°03' W 090°34'0 0.0
2014-Oct-08 20:33N 30°03' W 090°34'0 0.0
2014-Oct-08 19:33N 30°03' W 090°34'0 0.0
2014-Oct-08 18:33N 30°03' W 090°34'0 0.0
2014-Oct-08 17:33N 30°03' W 090°34'0 0.0
2014-Oct-08 16:33N 30°03' W 090°34'5 1.0
2014-Oct-08 11:33N 30°03' W 090°40'0 0.0
2014-Oct-08 10:33N 30°03' W 090°40'0 0.0
2014-Oct-08 09:33N 30°03' W 090°40'0 0.0
2014-Oct-08 08:33N 30°03' W 090°40'0 0.0
2014-Oct-08 07:33N 30°03' W 090°40'0 0.0
2014-Oct-08 06:33N 30°03' W 090°40'0 0.0
2014-Oct-08 05:33N 30°03' W 090°40'0 0.0
2014-Oct-08 04:33N 30°03' W 090°40'0 0.1
2014-Oct-08 03:33N 30°03' W 090°40'6 5.9
2014-Oct-08 02:33N 30°01' W 090°47'  

Dump ship's entire track history